sensor_id;sensor_type;location;lat;lon;timestamp;temperature;humidity
75281;HTU21D;63874;47.230;39.620;2023-11-19T00:00:22;6.26;81.84
75281;HTU21D;63874;47.230;39.620;2023-11-19T00:02:48;6.26;81.81
75281;HTU21D;63874;47.230;39.620;2023-11-19T00:05:14;6.26;81.75
75281;HTU21D;63874;47.230;39.620;2023-11-19T00:07:41;6.25;81.74
75281;HTU21D;63874;47.230;39.620;2023-11-19T00:10:15;6.25;81.73
75281;HTU21D;63874;47.230;39.620;2023-11-19T00:12:45;6.25;81.65
75281;HTU21D;63874;47.230;39.620;2023-11-19T00:15:10;6.24;81.57
75281;HTU21D;63874;47.230;39.620;2023-11-19T00:17:43;6.22;81.53
75281;HTU21D;63874;47.230;39.620;2023-11-19T00:20:16;6.21;81.52
75281;HTU21D;63874;47.230;39.620;2023-11-19T00:22:42;6.20;81.44
75281;HTU21D;63874;47.230;39.620;2023-11-19T00:25:10;6.20;81.40
75281;HTU21D;63874;47.230;39.620;2023-11-19T00:27:36;6.17;81.44
75281;HTU21D;63874;47.230;39.620;2023-11-19T00:30:07;6.17;81.43
75281;HTU21D;63874;47.230;39.620;2023-11-19T00:32:37;6.14;81.49
75281;HTU21D;63874;47.230;39.620;2023-11-19T00:35:07;6.12;81.55
75281;HTU21D;63874;47.230;39.620;2023-11-19T00:37:34;6.12;81.63
75281;HTU21D;63874;47.230;39.620;2023-11-19T00:40:00;6.11;81.62
75281;HTU21D;63874;47.230;39.620;2023-11-19T00:42:28;6.13;81.56
75281;HTU21D;63874;47.230;39.620;2023-11-19T00:44:54;6.15;81.49
75281;HTU21D;63874;47.230;39.620;2023-11-19T00:47:21;6.14;81.52
75281;HTU21D;63874;47.230;39.620;2023-11-19T00:49:48;6.12;81.47
75281;HTU21D;63874;47.230;39.620;2023-11-19T00:52:14;6.10;81.62
75281;HTU21D;63874;47.230;39.620;2023-11-19T00:54:41;6.09;81.69
75281;HTU21D;63874;47.230;39.620;2023-11-19T00:57:07;6.08;81.70
75281;HTU21D;63874;47.230;39.620;2023-11-19T00:59:33;6.14;81.68
75281;HTU21D;63874;47.230;39.620;2023-11-19T01:01:59;6.10;81.72
75281;HTU21D;63874;47.230;39.620;2023-11-19T01:04:36;6.11;81.77
75281;HTU21D;63874;47.230;39.620;2023-11-19T01:07:02;6.13;81.68
75281;HTU21D;63874;47.230;39.620;2023-11-19T01:09:32;6.11;81.69
75281;HTU21D;63874;47.230;39.620;2023-11-19T01:12:00;6.12;81.72
75281;HTU21D;63874;47.230;39.620;2023-11-19T01:14:26;6.15;81.68
75281;HTU21D;63874;47.230;39.620;2023-11-19T01:16:53;6.14;81.73
75281;HTU21D;63874;47.230;39.620;2023-11-19T01:19:20;6.17;81.70
75281;HTU21D;63874;47.230;39.620;2023-11-19T01:21:46;6.21;81.62
75281;HTU21D;63874;47.230;39.620;2023-11-19T01:24:12;6.22;81.52
75281;HTU21D;63874;47.230;39.620;2023-11-19T01:26:39;6.24;81.47
75281;HTU21D;63874;47.230;39.620;2023-11-19T01:29:11;6.25;81.42
75281;HTU21D;63874;47.230;39.620;2023-11-19T01:31:40;6.25;81.36
75281;HTU21D;63874;47.230;39.620;2023-11-19T01:34:06;6.26;81.38
75281;HTU21D;63874;47.230;39.620;2023-11-19T01:36:32;6.24;81.33
75281;HTU21D;63874;47.230;39.620;2023-11-19T01:38:58;6.23;81.36
75281;HTU21D;63874;47.230;39.620;2023-11-19T01:41:23;6.23;81.36
75281;HTU21D;63874;47.230;39.620;2023-11-19T01:43:50;6.26;81.21
75281;HTU21D;63874;47.230;39.620;2023-11-19T01:46:16;6.25;81.23
75281;HTU21D;63874;47.230;39.620;2023-11-19T01:48:43;6.23;81.26
75281;HTU21D;63874;47.230;39.620;2023-11-19T01:51:11;6.23;81.25
75281;HTU21D;63874;47.230;39.620;2023-11-19T01:53:38;6.23;81.27
75281;HTU21D;63874;47.230;39.620;2023-11-19T01:56:05;6.23;81.30
75281;HTU21D;63874;47.230;39.620;2023-11-19T01:58:37;6.23;81.25
75281;HTU21D;63874;47.230;39.620;2023-11-19T02:01:07;6.23;81.26
75281;HTU21D;63874;47.230;39.620;2023-11-19T02:03:34;6.25;81.33
75281;HTU21D;63874;47.230;39.620;2023-11-19T02:06:00;6.25;81.27
75281;HTU21D;63874;47.230;39.620;2023-11-19T02:08:26;6.25;81.10
75281;HTU21D;63874;47.230;39.620;2023-11-19T02:10:52;6.24;81.14
75281;HTU21D;63874;47.230;39.620;2023-11-19T02:13:18;6.25;81.08
75281;HTU21D;63874;47.230;39.620;2023-11-19T02:15:44;6.26;81.03
75281;HTU21D;63874;47.230;39.620;2023-11-19T02:18:26;6.25;81.03
75281;HTU21D;63874;47.230;39.620;2023-11-19T02:20:56;6.23;81.01
75281;HTU21D;63874;47.230;39.620;2023-11-19T02:23:22;6.22;81.04
75281;HTU21D;63874;47.230;39.620;2023-11-19T02:28:34;6.20;81.12
75281;HTU21D;63874;47.230;39.620;2023-11-19T02:31:01;6.21;81.09
75281;HTU21D;63874;47.230;39.620;2023-11-19T02:33:27;6.22;80.92
75281;HTU21D;63874;47.230;39.620;2023-11-19T02:35:52;6.17;81.01
75281;HTU21D;63874;47.230;39.620;2023-11-19T02:38:18;6.16;81.06
75281;HTU21D;63874;47.230;39.620;2023-11-19T02:40:44;6.17;80.98
75281;HTU21D;63874;47.230;39.620;2023-11-19T02:43:10;6.15;80.98
75281;HTU21D;63874;47.230;39.620;2023-11-19T02:45:35;6.13;80.98
75281;HTU21D;63874;47.230;39.620;2023-11-19T02:48:01;6.14;80.99
75281;HTU21D;63874;47.230;39.620;2023-11-19T02:50:27;6.15;80.96
75281;HTU21D;63874;47.230;39.620;2023-11-19T02:52:55;6.15;80.99
75281;HTU21D;63874;47.230;39.620;2023-11-19T02:55:25;6.16;80.85
75281;HTU21D;63874;47.230;39.620;2023-11-19T02:57:53;6.17;80.76
75281;HTU21D;63874;47.230;39.620;2023-11-19T03:00:19;6.13;80.81
75281;HTU21D;63874;47.230;39.620;2023-11-19T03:02:51;6.11;80.98
75281;HTU21D;63874;47.230;39.620;2023-11-19T03:05:25;6.09;80.95
75281;HTU21D;63874;47.230;39.620;2023-11-19T03:07:52;6.08;81.00
75281;HTU21D;63874;47.230;39.620;2023-11-19T03:10:17;6.05;81.11
75281;HTU21D;63874;47.230;39.620;2023-11-19T03:12:44;6.07;81.09
75281;HTU21D;63874;47.230;39.620;2023-11-19T03:15:10;6.07;81.10
75281;HTU21D;63874;47.230;39.620;2023-11-19T03:17:40;6.09;81.07
75281;HTU21D;63874;47.230;39.620;2023-11-19T03:20:07;6.11;80.98
75281;HTU21D;63874;47.230;39.620;2023-11-19T03:22:39;6.12;81.04
75281;HTU21D;63874;47.230;39.620;2023-11-19T03:25:07;6.13;80.93
75281;HTU21D;63874;47.230;39.620;2023-11-19T03:27:34;6.14;80.87
75281;HTU21D;63874;47.230;39.620;2023-11-19T03:30:04;6.13;80.78
75281;HTU21D;63874;47.230;39.620;2023-11-19T03:32:33;6.14;80.83
75281;HTU21D;63874;47.230;39.620;2023-11-19T03:35:01;6.16;80.65
75281;HTU21D;63874;47.230;39.620;2023-11-19T03:37:29;6.12;80.78
75281;HTU21D;63874;47.230;39.620;2023-11-19T03:39:57;6.14;80.91
75281;HTU21D;63874;47.230;39.620;2023-11-19T03:42:28;6.19;80.78
75281;HTU21D;63874;47.230;39.620;2023-11-19T03:44:56;6.17;80.75
75281;HTU21D;63874;47.230;39.620;2023-11-19T03:47:21;6.19;80.69
75281;HTU21D;63874;47.230;39.620;2023-11-19T03:49:51;6.20;80.65
75281;HTU21D;63874;47.230;39.620;2023-11-19T03:52:17;6.16;80.62
75281;HTU21D;63874;47.230;39.620;2023-11-19T03:54:43;6.20;80.49
75281;HTU21D;63874;47.230;39.620;2023-11-19T03:57:09;6.20;80.51
75281;HTU21D;63874;47.230;39.620;2023-11-19T03:59:38;6.19;80.59
75281;HTU21D;63874;47.230;39.620;2023-11-19T04:02:06;6.20;80.52
75281;HTU21D;63874;47.230;39.620;2023-11-19T04:04:34;6.21;80.36
75281;HTU21D;63874;47.230;39.620;2023-11-19T04:07:00;6.20;80.41
75281;HTU21D;63874;47.230;39.620;2023-11-19T04:09:28;6.23;80.22
75281;HTU21D;63874;47.230;39.620;2023-11-19T04:11:54;6.23;80.13
75281;HTU21D;63874;47.230;39.620;2023-11-19T04:14:20;6.21;80.17
75281;HTU21D;63874;47.230;39.620;2023-11-19T04:16:45;6.21;80.05
75281;HTU21D;63874;47.230;39.620;2023-11-19T04:19:11;6.22;79.90
75281;HTU21D;63874;47.230;39.620;2023-11-19T04:21:40;6.22;79.94
75281;HTU21D;63874;47.230;39.620;2023-11-19T04:24:06;6.22;79.76
75281;HTU21D;63874;47.230;39.620;2023-11-19T04:26:33;6.22;79.64
75281;HTU21D;63874;47.230;39.620;2023-11-19T04:28:59;6.20;79.74
75281;HTU21D;63874;47.230;39.620;2023-11-19T04:31:29;6.20;79.70
75281;HTU21D;63874;47.230;39.620;2023-11-19T04:33:56;6.17;79.72
75281;HTU21D;63874;47.230;39.620;2023-11-19T04:36:22;6.22;79.58
75281;HTU21D;63874;47.230;39.620;2023-11-19T04:38:53;6.19;79.64
75281;HTU21D;63874;47.230;39.620;2023-11-19T04:41:19;6.19;79.72
75281;HTU21D;63874;47.230;39.620;2023-11-19T04:43:44;6.24;79.32
75281;HTU21D;63874;47.230;39.620;2023-11-19T04:46:13;6.24;79.22
75281;HTU21D;63874;47.230;39.620;2023-11-19T04:48:39;6.21;79.19
75281;HTU21D;63874;47.230;39.620;2023-11-19T04:51:04;6.20;79.30
75281;HTU21D;63874;47.230;39.620;2023-11-19T04:53:30;6.21;79.21
75281;HTU21D;63874;47.230;39.620;2023-11-19T04:55:56;6.19;79.04
75281;HTU21D;63874;47.230;39.620;2023-11-19T04:58:21;6.17;79.09
75281;HTU21D;63874;47.230;39.620;2023-11-19T05:00:50;6.16;79.11
75281;HTU21D;63874;47.230;39.620;2023-11-19T05:03:19;6.14;79.04
75281;HTU21D;63874;47.230;39.620;2023-11-19T05:05:45;6.16;78.80
75281;HTU21D;63874;47.230;39.620;2023-11-19T05:08:10;6.16;78.68
75281;HTU21D;63874;47.230;39.620;2023-11-19T05:10:37;6.13;78.53
75281;HTU21D;63874;47.230;39.620;2023-11-19T05:13:03;6.10;78.74
75281;HTU21D;63874;47.230;39.620;2023-11-19T05:15:29;6.10;78.66
75281;HTU21D;63874;47.230;39.620;2023-11-19T05:17:54;6.13;78.59
75281;HTU21D;63874;47.230;39.620;2023-11-19T05:20:20;6.11;78.36
75281;HTU21D;63874;47.230;39.620;2023-11-19T05:22:46;6.11;78.19
75281;HTU21D;63874;47.230;39.620;2023-11-19T05:25:12;6.10;78.17
75281;HTU21D;63874;47.230;39.620;2023-11-19T05:27:38;6.08;78.02
75281;HTU21D;63874;47.230;39.620;2023-11-19T05:30:04;6.06;78.15
75281;HTU21D;63874;47.230;39.620;2023-11-19T05:32:35;6.07;78.03
75281;HTU21D;63874;47.230;39.620;2023-11-19T05:35:01;6.07;78.16
75281;HTU21D;63874;47.230;39.620;2023-11-19T05:37:27;6.06;78.00
75281;HTU21D;63874;47.230;39.620;2023-11-19T05:39:52;6.06;77.88
75281;HTU21D;63874;47.230;39.620;2023-11-19T05:42:18;6.07;77.81
75281;HTU21D;63874;47.230;39.620;2023-11-19T05:44:47;6.07;77.73
75281;HTU21D;63874;47.230;39.620;2023-11-19T05:47:15;6.08;77.78
75281;HTU21D;63874;47.230;39.620;2023-11-19T05:49:42;6.07;77.79
75281;HTU21D;63874;47.230;39.620;2023-11-19T05:52:07;6.07;77.83
75281;HTU21D;63874;47.230;39.620;2023-11-19T05:54:35;6.06;78.00
75281;HTU21D;63874;47.230;39.620;2023-11-19T05:57:04;6.07;77.76
75281;HTU21D;63874;47.230;39.620;2023-11-19T05:59:29;6.07;77.45
75281;HTU21D;63874;47.230;39.620;2023-11-19T06:01:57;6.04;77.53
75281;HTU21D;63874;47.230;39.620;2023-11-19T06:04:27;6.00;77.72
75281;HTU21D;63874;47.230;39.620;2023-11-19T06:06:52;6.00;77.69
75281;HTU21D;63874;47.230;39.620;2023-11-19T06:09:20;5.99;77.44
75281;HTU21D;63874;47.230;39.620;2023-11-19T06:11:46;5.99;77.50
75281;HTU21D;63874;47.230;39.620;2023-11-19T06:14:13;5.99;77.34
75281;HTU21D;63874;47.230;39.620;2023-11-19T06:16:39;5.95;77.45
75281;HTU21D;63874;47.230;39.620;2023-11-19T06:19:05;5.96;77.35
75281;HTU21D;63874;47.230;39.620;2023-11-19T06:21:32;5.95;77.43
75281;HTU21D;63874;47.230;39.620;2023-11-19T06:23:58;5.94;77.32
75281;HTU21D;63874;47.230;39.620;2023-11-19T06:26:28;5.92;77.32
75281;HTU21D;63874;47.230;39.620;2023-11-19T06:28:57;5.91;77.40
75281;HTU21D;63874;47.230;39.620;2023-11-19T06:31:26;5.92;77.34
75281;HTU21D;63874;47.230;39.620;2023-11-19T06:33:56;5.91;77.26
75281;HTU21D;63874;47.230;39.620;2023-11-19T06:36:22;5.90;77.32
75281;HTU21D;63874;47.230;39.620;2023-11-19T06:38:48;5.90;77.40
75281;HTU21D;63874;47.230;39.620;2023-11-19T06:41:16;5.91;77.33
75281;HTU21D;63874;47.230;39.620;2023-11-19T06:43:42;5.87;77.45
75281;HTU21D;63874;47.230;39.620;2023-11-19T06:46:18;5.86;77.67
75281;HTU21D;63874;47.230;39.620;2023-11-19T06:48:44;5.85;77.72
75281;HTU21D;63874;47.230;39.620;2023-11-19T06:51:11;5.84;77.82
75281;HTU21D;63874;47.230;39.620;2023-11-19T06:53:38;5.83;77.89
75281;HTU21D;63874;47.230;39.620;2023-11-19T06:56:23;5.83;77.96
75281;HTU21D;63874;47.230;39.620;2023-11-19T06:58:52;5.82;77.98
75281;HTU21D;63874;47.230;39.620;2023-11-19T07:01:18;5.83;77.98
75281;HTU21D;63874;47.230;39.620;2023-11-19T07:03:47;5.82;78.07
75281;HTU21D;63874;47.230;39.620;2023-11-19T07:06:13;5.83;78.15
75281;HTU21D;63874;47.230;39.620;2023-11-19T07:08:42;5.81;78.27
75281;HTU21D;63874;47.230;39.620;2023-11-19T07:11:12;5.80;78.08
75281;HTU21D;63874;47.230;39.620;2023-11-19T07:13:39;5.75;78.03
75281;HTU21D;63874;47.230;39.620;2023-11-19T07:16:10;5.68;78.27
75281;HTU21D;63874;47.230;39.620;2023-11-19T07:18:36;5.67;78.40
75281;HTU21D;63874;47.230;39.620;2023-11-19T07:21:01;5.68;78.51
75281;HTU21D;63874;47.230;39.620;2023-11-19T07:23:28;5.69;78.44
75281;HTU21D;63874;47.230;39.620;2023-11-19T07:25:54;5.70;78.45
75281;HTU21D;63874;47.230;39.620;2023-11-19T07:28:19;5.71;78.43
75281;HTU21D;63874;47.230;39.620;2023-11-19T07:30:45;5.77;78.29
75281;HTU21D;63874;47.230;39.620;2023-11-19T07:33:14;5.77;77.98
75281;HTU21D;63874;47.230;39.620;2023-11-19T07:35:40;5.76;77.89
75281;HTU21D;63874;47.230;39.620;2023-11-19T07:38:08;5.76;77.97
75281;HTU21D;63874;47.230;39.620;2023-11-19T07:40:35;5.77;77.97
75281;HTU21D;63874;47.230;39.620;2023-11-19T07:43:01;5.77;78.00
75281;HTU21D;63874;47.230;39.620;2023-11-19T07:45:26;5.78;77.95
75281;HTU21D;63874;47.230;39.620;2023-11-19T07:47:53;5.78;78.01
75281;HTU21D;63874;47.230;39.620;2023-11-19T07:50:20;5.75;78.23
75281;HTU21D;63874;47.230;39.620;2023-11-19T07:52:46;5.74;78.39
75281;HTU21D;63874;47.230;39.620;2023-11-19T07:55:13;5.71;78.53
75281;HTU21D;63874;47.230;39.620;2023-11-19T07:57:42;5.71;78.51
75281;HTU21D;63874;47.230;39.620;2023-11-19T08:00:08;5.72;78.46
75281;HTU21D;63874;47.230;39.620;2023-11-19T08:02:38;5.71;78.44
75281;HTU21D;63874;47.230;39.620;2023-11-19T08:05:05;5.65;78.41
75281;HTU21D;63874;47.230;39.620;2023-11-19T08:07:31;5.59;78.63
75281;HTU21D;63874;47.230;39.620;2023-11-19T08:09:57;5.53;78.81
75281;HTU21D;63874;47.230;39.620;2023-11-19T08:12:22;5.47;78.88
75281;HTU21D;63874;47.230;39.620;2023-11-19T08:14:48;5.43;79.18
75281;HTU21D;63874;47.230;39.620;2023-11-19T08:17:14;5.31;79.45
75281;HTU21D;63874;47.230;39.620;2023-11-19T08:19:41;5.17;79.74
75281;HTU21D;63874;47.230;39.620;2023-11-19T08:22:07;5.13;80.11
75281;HTU21D;63874;47.230;39.620;2023-11-19T08:24:35;5.09;80.48
75281;HTU21D;63874;47.230;39.620;2023-11-19T08:27:05;5.04;80.79
75281;HTU21D;63874;47.230;39.620;2023-11-19T08:29:32;5.00;80.96
75281;HTU21D;63874;47.230;39.620;2023-11-19T08:31:59;4.96;81.29
75281;HTU21D;63874;47.230;39.620;2023-11-19T08:34:25;4.97;81.37
75281;HTU21D;63874;47.230;39.620;2023-11-19T08:36:51;4.93;81.62
75281;HTU21D;63874;47.230;39.620;2023-11-19T08:39:19;4.86;81.59
75281;HTU21D;63874;47.230;39.620;2023-11-19T08:41:47;4.86;82.00
75281;HTU21D;63874;47.230;39.620;2023-11-19T08:44:13;4.88;82.05
75281;HTU21D;63874;47.230;39.620;2023-11-19T08:46:46;4.86;81.91
75281;HTU21D;63874;47.230;39.620;2023-11-19T08:49:12;4.86;81.98
75281;HTU21D;63874;47.230;39.620;2023-11-19T08:51:40;4.90;82.32
75281;HTU21D;63874;47.230;39.620;2023-11-19T08:54:07;4.87;82.16
75281;HTU21D;63874;47.230;39.620;2023-11-19T08:56:33;4.89;82.36
75281;HTU21D;63874;47.230;39.620;2023-11-19T08:59:00;4.88;82.39
75281;HTU21D;63874;47.230;39.620;2023-11-19T09:01:25;4.88;82.37
75281;HTU21D;63874;47.230;39.620;2023-11-19T09:03:51;4.91;82.46
75281;HTU21D;63874;47.230;39.620;2023-11-19T09:06:17;4.89;82.40
75281;HTU21D;63874;47.230;39.620;2023-11-19T09:08:43;4.82;82.55
75281;HTU21D;63874;47.230;39.620;2023-11-19T09:11:08;4.81;82.81
75281;HTU21D;63874;47.230;39.620;2023-11-19T09:13:35;4.80;82.97
75281;HTU21D;63874;47.230;39.620;2023-11-19T09:16:01;4.78;83.16
75281;HTU21D;63874;47.230;39.620;2023-11-19T09:18:30;4.72;83.35
75281;HTU21D;63874;47.230;39.620;2023-11-19T09:20:55;4.76;83.65
75281;HTU21D;63874;47.230;39.620;2023-11-19T09:23:21;4.76;83.63
75281;HTU21D;63874;47.230;39.620;2023-11-19T09:25:48;4.72;83.50
75281;HTU21D;63874;47.230;39.620;2023-11-19T09:28:14;4.68;83.90
75281;HTU21D;63874;47.230;39.620;2023-11-19T09:30:39;4.67;83.91
75281;HTU21D;63874;47.230;39.620;2023-11-19T09:33:05;4.72;84.23
75281;HTU21D;63874;47.230;39.620;2023-11-19T09:35:31;4.69;84.26
75281;HTU21D;63874;47.230;39.620;2023-11-19T09:37:57;4.68;84.26
75281;HTU21D;63874;47.230;39.620;2023-11-19T09:40:23;4.67;84.45
75281;HTU21D;63874;47.230;39.620;2023-11-19T09:42:48;4.68;84.43
75281;HTU21D;63874;47.230;39.620;2023-11-19T09:45:17;4.68;84.51
75281;HTU21D;63874;47.230;39.620;2023-11-19T09:47:44;4.72;84.54
75281;HTU21D;63874;47.230;39.620;2023-11-19T09:50:14;4.75;84.81
75281;HTU21D;63874;47.230;39.620;2023-11-19T09:52:40;4.72;84.64
75281;HTU21D;63874;47.230;39.620;2023-11-19T09:55:06;4.74;84.99
75281;HTU21D;63874;47.230;39.620;2023-11-19T09:57:37;4.73;84.93
75281;HTU21D;63874;47.230;39.620;2023-11-19T10:00:03;4.74;84.97
75281;HTU21D;63874;47.230;39.620;2023-11-19T10:02:33;4.75;84.99
75281;HTU21D;63874;47.230;39.620;2023-11-19T10:04:59;4.77;85.14
75281;HTU21D;63874;47.230;39.620;2023-11-19T10:07:24;4.76;85.11
75281;HTU21D;63874;47.230;39.620;2023-11-19T10:09:50;4.78;85.18
75281;HTU21D;63874;47.230;39.620;2023-11-19T10:12:16;4.76;85.19
75281;HTU21D;63874;47.230;39.620;2023-11-19T10:14:42;4.78;85.38
75281;HTU21D;63874;47.230;39.620;2023-11-19T10:17:08;4.79;85.49
75281;HTU21D;63874;47.230;39.620;2023-11-19T10:19:34;4.81;85.62
75281;HTU21D;63874;47.230;39.620;2023-11-19T10:22:04;4.76;85.67
75281;HTU21D;63874;47.230;39.620;2023-11-19T10:24:33;4.78;85.84
75281;HTU21D;63874;47.230;39.620;2023-11-19T10:27:00;4.74;85.60
75281;HTU21D;63874;47.230;39.620;2023-11-19T10:29:26;4.74;85.97
75281;HTU21D;63874;47.230;39.620;2023-11-19T10:31:57;4.77;86.00
75281;HTU21D;63874;47.230;39.620;2023-11-19T10:34:24;4.76;85.90
75281;HTU21D;63874;47.230;39.620;2023-11-19T10:36:50;4.74;86.05
75281;HTU21D;63874;47.230;39.620;2023-11-19T10:39:16;4.73;86.00
75281;HTU21D;63874;47.230;39.620;2023-11-19T10:41:42;4.75;86.09
75281;HTU21D;63874;47.230;39.620;2023-11-19T10:44:08;4.78;86.17
75281;HTU21D;63874;47.230;39.620;2023-11-19T10:46:41;4.78;86.23
75281;HTU21D;63874;47.230;39.620;2023-11-19T10:49:07;4.80;86.24
75281;HTU21D;63874;47.230;39.620;2023-11-19T10:51:33;4.83;86.17
75281;HTU21D;63874;47.230;39.620;2023-11-19T10:54:05;4.82;86.16
75281;HTU21D;63874;47.230;39.620;2023-11-19T10:56:31;4.82;86.36
75281;HTU21D;63874;47.230;39.620;2023-11-19T10:58:58;4.78;86.19
75281;HTU21D;63874;47.230;39.620;2023-11-19T11:01:26;4.77;86.49
75281;HTU21D;63874;47.230;39.620;2023-11-19T11:03:52;4.77;86.53
75281;HTU21D;63874;47.230;39.620;2023-11-19T11:06:19;4.77;86.59
75281;HTU21D;63874;47.230;39.620;2023-11-19T11:08:46;4.79;86.75
75281;HTU21D;63874;47.230;39.620;2023-11-19T11:11:13;4.80;86.55
75281;HTU21D;63874;47.230;39.620;2023-11-19T11:13:42;4.80;86.60
75281;HTU21D;63874;47.230;39.620;2023-11-19T11:16:08;4.82;86.63
75281;HTU21D;63874;47.230;39.620;2023-11-19T11:18:34;4.87;86.85
75281;HTU21D;63874;47.230;39.620;2023-11-19T11:21:00;4.86;86.83
75281;HTU21D;63874;47.230;39.620;2023-11-19T11:28:43;4.92;86.82
75281;HTU21D;63874;47.230;39.620;2023-11-19T11:36:21;4.82;86.80
75281;HTU21D;63874;47.230;39.620;2023-11-19T11:38:49;4.83;86.80
75281;HTU21D;63874;47.230;39.620;2023-11-19T11:41:18;4.81;86.89
75281;HTU21D;63874;47.230;39.620;2023-11-19T11:43:56;4.83;86.84
75281;HTU21D;63874;47.230;39.620;2023-11-19T11:49:10;4.79;86.87
75281;HTU21D;63874;47.230;39.620;2023-11-19T11:54:08;4.79;87.12
75281;HTU21D;63874;47.230;39.620;2023-11-19T11:56:36;4.75;87.04
75281;HTU21D;63874;47.230;39.620;2023-11-19T11:59:02;4.71;87.15
75281;HTU21D;63874;47.230;39.620;2023-11-19T12:01:28;4.75;87.29
75281;HTU21D;63874;47.230;39.620;2023-11-19T12:03:58;4.72;87.34
75281;HTU21D;63874;47.230;39.620;2023-11-19T12:06:26;4.72;87.41
75281;HTU21D;63874;47.230;39.620;2023-11-19T12:08:52;4.75;87.42
75281;HTU21D;63874;47.230;39.620;2023-11-19T12:11:18;4.76;87.35
75281;HTU21D;63874;47.230;39.620;2023-11-19T12:13:56;4.77;87.45
75281;HTU21D;63874;47.230;39.620;2023-11-19T12:16:24;4.82;87.57
75281;HTU21D;63874;47.230;39.620;2023-11-19T12:18:59;4.80;87.42
75281;HTU21D;63874;47.230;39.620;2023-11-19T12:21:30;4.82;87.35
75281;HTU21D;63874;47.230;39.620;2023-11-19T12:23:57;4.83;87.35
75281;HTU21D;63874;47.230;39.620;2023-11-19T12:26:31;4.79;87.77
75281;HTU21D;63874;47.230;39.620;2023-11-19T12:28:58;4.80;87.65
75281;HTU21D;63874;47.230;39.620;2023-11-19T12:31:24;4.80;87.63
75281;HTU21D;63874;47.230;39.620;2023-11-19T12:33:50;4.81;87.62
75281;HTU21D;63874;47.230;39.620;2023-11-19T12:36:16;4.82;87.71
75281;HTU21D;63874;47.230;39.620;2023-11-19T12:38:43;4.79;87.75
75281;HTU21D;63874;47.230;39.620;2023-11-19T12:41:11;4.76;87.99
75281;HTU21D;63874;47.230;39.620;2023-11-19T12:43:38;4.73;88.07
75281;HTU21D;63874;47.230;39.620;2023-11-19T12:46:20;4.75;88.05
75281;HTU21D;63874;47.230;39.620;2023-11-19T12:48:49;4.79;88.22
75281;HTU21D;63874;47.230;39.620;2023-11-19T12:51:32;4.76;88.19
75281;HTU21D;63874;47.230;39.620;2023-11-19T12:53:58;4.78;88.36
75281;HTU21D;63874;47.230;39.620;2023-11-19T12:56:24;4.79;88.46
75281;HTU21D;63874;47.230;39.620;2023-11-19T12:58:50;4.81;88.55
75281;HTU21D;63874;47.230;39.620;2023-11-19T13:01:19;4.84;88.64
75281;HTU21D;63874;47.230;39.620;2023-11-19T13:03:49;4.83;88.61
75281;HTU21D;63874;47.230;39.620;2023-11-19T13:06:16;4.86;88.62
75281;HTU21D;63874;47.230;39.620;2023-11-19T13:08:45;4.87;88.67
75281;HTU21D;63874;47.230;39.620;2023-11-19T13:11:14;4.88;88.60
75281;HTU21D;63874;47.230;39.620;2023-11-19T13:13:56;4.88;88.71
75281;HTU21D;63874;47.230;39.620;2023-11-19T13:16:22;4.86;88.70
75281;HTU21D;63874;47.230;39.620;2023-11-19T13:18:47;4.86;88.75
75281;HTU21D;63874;47.230;39.620;2023-11-19T13:21:14;4.83;88.83
75281;HTU21D;63874;47.230;39.620;2023-11-19T13:23:40;4.87;88.79
75281;HTU21D;63874;47.230;39.620;2023-11-19T13:26:06;4.87;88.79
75281;HTU21D;63874;47.230;39.620;2023-11-19T13:28:32;4.91;89.02
75281;HTU21D;63874;47.230;39.620;2023-11-19T13:30:58;4.86;89.05
75281;HTU21D;63874;47.230;39.620;2023-11-19T13:33:28;4.89;89.13
75281;HTU21D;63874;47.230;39.620;2023-11-19T13:35:55;4.89;89.14
75281;HTU21D;63874;47.230;39.620;2023-11-19T13:38:23;4.89;89.13
75281;HTU21D;63874;47.230;39.620;2023-11-19T13:40:51;4.93;89.33
75281;HTU21D;63874;47.230;39.620;2023-11-19T13:43:17;4.91;89.23
75281;HTU21D;63874;47.230;39.620;2023-11-19T13:45:43;4.91;89.25
75281;HTU21D;63874;47.230;39.620;2023-11-19T13:48:13;4.96;89.31
75281;HTU21D;63874;47.230;39.620;2023-11-19T13:50:39;4.95;89.25
75281;HTU21D;63874;47.230;39.620;2023-11-19T13:53:07;4.96;89.33
75281;HTU21D;63874;47.230;39.620;2023-11-19T13:55:33;4.97;89.41
75281;HTU21D;63874;47.230;39.620;2023-11-19T13:57:59;5.00;89.44
75281;HTU21D;63874;47.230;39.620;2023-11-19T14:00:25;5.01;89.37
75281;HTU21D;63874;47.230;39.620;2023-11-19T14:02:51;5.00;89.42
75281;HTU21D;63874;47.230;39.620;2023-11-19T14:05:19;5.00;89.42
75281;HTU21D;63874;47.230;39.620;2023-11-19T14:07:44;5.02;89.44
75281;HTU21D;63874;47.230;39.620;2023-11-19T14:10:14;5.01;89.53
75281;HTU21D;63874;47.230;39.620;2023-11-19T14:12:41;5.03;89.44
75281;HTU21D;63874;47.230;39.620;2023-11-19T14:15:10;5.01;89.43
75281;HTU21D;63874;47.230;39.620;2023-11-19T14:17:38;5.04;89.41
75281;HTU21D;63874;47.230;39.620;2023-11-19T14:20:07;5.02;89.37
75281;HTU21D;63874;47.230;39.620;2023-11-19T14:22:41;5.03;89.44
75281;HTU21D;63874;47.230;39.620;2023-11-19T14:25:08;5.02;89.44
75281;HTU21D;63874;47.230;39.620;2023-11-19T14:27:42;5.05;89.45
75281;HTU21D;63874;47.230;39.620;2023-11-19T14:30:14;5.07;89.34
75281;HTU21D;63874;47.230;39.620;2023-11-19T14:32:42;5.05;89.36
75281;HTU21D;63874;47.230;39.620;2023-11-19T14:35:11;5.07;89.36
75281;HTU21D;63874;47.230;39.620;2023-11-19T14:37:37;5.05;89.32
75281;HTU21D;63874;47.230;39.620;2023-11-19T14:40:12;5.06;89.33
75281;HTU21D;63874;47.230;39.620;2023-11-19T14:42:44;5.04;89.30
75281;HTU21D;63874;47.230;39.620;2023-11-19T14:45:10;5.04;89.39
75281;HTU21D;63874;47.230;39.620;2023-11-19T14:47:37;5.04;89.33
75281;HTU21D;63874;47.230;39.620;2023-11-19T14:50:04;5.07;89.50
75281;HTU21D;63874;47.230;39.620;2023-11-19T14:52:31;5.02;89.40
75281;HTU21D;63874;47.230;39.620;2023-11-19T14:54:57;4.98;89.39
75281;HTU21D;63874;47.230;39.620;2023-11-19T14:57:23;4.94;89.43
75281;HTU21D;63874;47.230;39.620;2023-11-19T14:59:48;4.96;89.51
75281;HTU21D;63874;47.230;39.620;2023-11-19T15:02:17;4.97;89.49
75281;HTU21D;63874;47.230;39.620;2023-11-19T15:04:44;4.98;89.50
75281;HTU21D;63874;47.230;39.620;2023-11-19T15:07:12;4.96;89.54
75281;HTU21D;63874;47.230;39.620;2023-11-19T15:09:41;4.98;89.73
75281;HTU21D;63874;47.230;39.620;2023-11-19T15:12:08;5.00;89.71
75281;HTU21D;63874;47.230;39.620;2023-11-19T15:14:37;5.02;89.82
75281;HTU21D;63874;47.230;39.620;2023-11-19T15:17:04;4.98;89.75
75281;HTU21D;63874;47.230;39.620;2023-11-19T15:19:52;4.97;89.65
75281;HTU21D;63874;47.230;39.620;2023-11-19T15:22:17;4.93;89.73
75281;HTU21D;63874;47.230;39.620;2023-11-19T15:24:43;4.92;89.75
75281;HTU21D;63874;47.230;39.620;2023-11-19T15:27:09;4.92;89.78
75281;HTU21D;63874;47.230;39.620;2023-11-19T15:29:55;4.91;89.75
75281;HTU21D;63874;47.230;39.620;2023-11-19T15:32:21;4.91;89.73
75281;HTU21D;63874;47.230;39.620;2023-11-19T15:34:50;4.92;89.76